createdAt,value
2019-02-22T00:02:32.431Z,9.00
2019-02-22T00:07:36.237Z,9.00
2019-02-22T00:12:40.146Z,9.00
2019-02-22T00:17:44.067Z,8.40
2019-02-22T00:22:47.873Z,8.50
2019-02-22T00:27:51.650Z,8.00
2019-02-22T00:32:55.473Z,8.00
2019-02-22T00:37:59.299Z,8.00
2019-02-22T00:43:03.141Z,8.40
2019-02-22T00:48:06.933Z,9.00
2019-02-22T00:53:10.750Z,8.00
2019-02-22T00:58:14.528Z,6.50
2019-02-22T01:03:18.475Z,8.50
2019-02-22T01:08:22.265Z,8.00
2019-02-22T01:13:26.125Z,8.00
2019-02-22T01:18:29.986Z,9.00
2019-02-22T01:23:33.775Z,8.75
2019-02-22T01:28:37.558Z,7.60
2019-02-22T01:33:41.374Z,9.00
2019-02-22T01:38:45.242Z,7.00
2019-02-22T01:43:49.208Z,6.60
2019-02-22T01:48:53.108Z,8.50
2019-02-22T01:53:56.909Z,7.50
2019-02-22T01:59:00.698Z,8.00
2019-02-22T02:04:04.499Z,6.00
2019-02-22T02:09:08.378Z,7.00
2019-02-22T02:14:12.185Z,7.00
2019-02-22T02:19:16.027Z,8.00
2019-02-22T02:24:19.815Z,6.00
2019-02-22T02:29:23.701Z,7.00
2019-02-22T02:34:27.498Z,7.50
2019-02-22T02:39:31.303Z,6.00
2019-02-22T02:44:35.152Z,7.00
2019-02-22T02:49:38.944Z,6.00
2019-02-22T02:54:42.796Z,6.00
2019-02-22T02:59:46.568Z,6.25
2019-02-22T03:04:50.341Z,6.00
2019-02-22T03:09:54.316Z,6.00
2019-02-22T03:14:58.097Z,6.00
2019-02-22T03:20:01.962Z,4.00
2019-02-22T03:25:06.374Z,5.60
2019-02-22T03:30:10.245Z,4.00
2019-02-22T03:35:14.043Z,5.60
2019-02-22T03:40:17.872Z,4.00
2019-02-22T03:45:21.681Z,6.00
2019-02-22T03:50:25.590Z,4.00
2019-02-22T03:55:29.410Z,6.00
2019-02-22T04:00:33.337Z,6.00
2019-02-22T04:05:37.168Z,6.20
2019-02-22T04:10:40.984Z,4.00
2019-02-22T04:15:44.806Z,4.00
2019-02-22T04:20:48.616Z,4.00
2019-02-22T04:25:52.436Z,4.00
2019-02-22T04:30:56.412Z,4.00
2019-02-22T04:36:00.324Z,4.50
2019-02-22T04:41:04.158Z,4.00
2019-02-22T04:46:07.981Z,5.60
2019-02-22T04:51:11.808Z,3.60
2019-02-22T04:56:15.689Z,3.50
2019-02-22T05:01:19.524Z,5.00
2019-02-22T05:06:23.339Z,3.00
2019-02-22T05:11:27.284Z,3.00
2019-02-22T05:16:31.096Z,4.40
2019-02-22T05:21:35.011Z,4.00
2019-02-22T05:26:38.805Z,3.75
2019-02-22T05:31:42.606Z,2.00
2019-02-22T05:36:46.412Z,2.00
2019-02-22T05:41:50.351Z,2.75
2019-02-22T05:47:00.307Z,3.80
2019-02-22T05:51:59.903Z,4.00
2019-02-22T05:57:03.732Z,3.00
2019-02-22T06:02:14.583Z,3.00
2019-02-22T06:07:18.743Z,4.00
2019-02-22T06:12:33.846Z,3.25
2019-02-22T06:17:28.098Z,3.00
2019-02-22T06:22:31.893Z,3.00
2019-02-22T06:27:35.783Z,3.00
2019-02-22T06:32:42.141Z,3.25
2019-02-22T06:37:45.261Z,3.00
2019-02-22T06:42:49.095Z,3.00
2019-02-22T06:47:52.908Z,3.50
2019-02-22T06:52:56.788Z,2.80
2019-02-22T06:58:00.656Z,2.00
2019-02-22T07:03:04.454Z,3.00
2019-02-22T07:08:13.497Z,3.00
2019-02-22T07:13:19.096Z,2.00
2019-02-22T07:18:22.892Z,3.00
2019-02-22T07:23:26.730Z,3.00
2019-02-22T07:28:30.561Z,3.00
2019-02-22T07:33:34.447Z,3.75
2019-02-22T07:38:38.427Z,3.20
2019-02-22T07:43:42.451Z,3.00
2019-02-22T07:48:46.248Z,2.00
2019-02-22T07:53:50.089Z,7.80
2019-02-22T07:58:54.019Z,12.25
2019-02-22T08:03:57.822Z,8.80
2019-02-22T08:09:01.698Z,6.75
2019-02-22T08:14:07.817Z,5.00
2019-02-22T08:19:11.475Z,6.60
2019-02-22T08:24:15.359Z,4.00
2019-02-22T08:29:19.134Z,3.00
2019-02-22T08:34:22.938Z,2.75
2019-02-22T08:44:43.322Z,2.40
2019-02-22T08:49:55.071Z,1.50
2019-02-22T08:54:58.914Z,2.50
2019-02-22T09:00:02.774Z,3.00
2019-02-22T09:05:07.121Z,3.00
2019-02-22T09:10:11.025Z,2.00
2019-02-22T09:15:14.833Z,3.00
2019-02-22T09:20:18.706Z,2.00
2019-02-22T09:25:22.586Z,3.00
2019-02-22T09:30:26.496Z,1.75
2019-02-22T09:35:30.411Z,2.00
2019-02-22T09:40:34.201Z,2.00
2019-02-22T09:45:37.985Z,1.00
2019-02-22T09:50:41.870Z,2.00
2019-02-22T09:55:45.658Z,1.75
2019-02-22T10:00:49.784Z,1.50
2019-02-22T10:05:53.624Z,1.75
2019-02-22T10:10:57.707Z,2.00
2019-02-22T10:16:01.501Z,1.75
2019-02-22T10:21:05.290Z,2.00
2019-02-22T10:26:09.525Z,1.00
2019-02-22T10:31:13.319Z,2.00
2019-02-22T10:36:17.099Z,2.00
2019-02-22T10:41:20.907Z,2.80
2019-02-22T10:46:24.724Z,1.00
2019-02-22T10:51:28.499Z,2.00
2019-02-22T10:56:32.307Z,1.00
2019-02-22T11:01:36.113Z,2.00
2019-02-22T11:06:42.287Z,2.20
2019-02-22T11:11:46.073Z,2.00
2019-02-22T11:16:49.850Z,2.00
2019-02-22T11:21:53.649Z,2.00
2019-02-22T11:26:57.469Z,1.00
2019-02-22T11:32:01.256Z,1.25
2019-02-22T11:37:05.167Z,1.00
2019-02-22T11:42:08.969Z,1.60
2019-02-22T11:47:12.802Z,1.50
2019-02-22T11:52:16.587Z,2.00
2019-02-22T11:57:20.597Z,1.75
2019-02-22T12:02:24.470Z,1.00
2019-02-22T12:07:28.341Z,1.00
2019-02-22T12:12:32.145Z,1.80
2019-02-22T12:17:35.934Z,1.80
2019-02-22T12:22:39.741Z,1.00
2019-02-22T12:27:43.533Z,1.00
2019-02-22T12:32:47.312Z,1.00
2019-02-22T12:37:51.094Z,1.40
2019-02-22T12:42:54.901Z,1.25
2019-02-22T12:47:58.682Z,1.80
2019-02-22T12:53:02.546Z,2.00
2019-02-22T12:58:06.340Z,1.40
2019-02-22T13:03:10.174Z,1.80
2019-02-22T13:08:13.946Z,1.20
2019-02-22T13:13:17.725Z,1.00
2019-02-22T13:18:21.527Z,1.25
2019-02-22T13:23:25.378Z,1.00
2019-02-22T13:28:29.151Z,2.00
2019-02-22T13:33:32.962Z,1.80
2019-02-22T13:38:36.850Z,1.25
2019-02-22T13:43:40.785Z,1.00
2019-02-22T13:48:44.723Z,0.25
2019-02-22T13:53:48.529Z,1.00
2019-02-22T13:58:52.315Z,0.80
2019-02-22T14:03:56.172Z,1.00
2019-02-22T14:08:59.944Z,1.00
2019-02-22T14:14:03.782Z,2.00
2019-02-22T14:19:08.726Z,1.00
2019-02-22T14:24:12.526Z,1.20
2019-02-22T14:29:16.338Z,1.00
2019-02-22T14:34:20.175Z,1.20
2019-02-22T14:39:23.956Z,3.00
2019-02-22T14:44:27.766Z,1.00
2019-02-22T14:49:31.562Z,2.00
2019-02-22T14:54:35.481Z,2.00
2019-02-22T14:59:39.310Z,2.00
2019-02-22T15:04:43.195Z,1.25
2019-02-22T15:09:47.051Z,3.00
2019-02-22T15:14:50.887Z,2.75
2019-02-22T15:19:54.672Z,2.00
2019-02-22T15:24:58.472Z,3.00
2019-02-22T15:30:02.515Z,3.00
2019-02-22T15:35:08.257Z,3.00
2019-02-22T15:40:12.077Z,3.50
2019-02-22T15:45:16.344Z,3.40
2019-02-22T15:50:20.186Z,3.60
2019-02-22T15:55:23.974Z,4.80
2019-02-22T16:00:28.897Z,4.00
2019-02-22T16:05:34.946Z,5.50
2019-02-22T16:10:38.725Z,6.00
2019-02-22T16:15:42.498Z,6.00
2019-02-22T16:20:46.320Z,5.50
2019-02-22T16:25:50.119Z,6.00
2019-02-22T16:30:53.903Z,6.60
2019-02-22T16:35:57.679Z,6.75
2019-02-22T16:41:01.457Z,7.25
2019-02-22T16:46:05.282Z,7.00
2019-02-22T16:51:09.066Z,6.75
2019-02-22T16:56:13.105Z,7.00
2019-02-22T17:01:16.887Z,9.00
2019-02-22T17:06:20.704Z,8.50
2019-02-22T17:11:24.488Z,7.00
2019-02-22T17:16:28.297Z,7.60
2019-02-22T17:21:32.142Z,8.75
2019-02-22T17:26:35.941Z,6.50
2019-02-22T17:31:39.728Z,7.75
2019-02-22T17:36:43.588Z,8.00
2019-02-22T17:41:47.387Z,8.25
2019-02-22T17:46:57.718Z,8.00
2019-02-22T17:51:56.756Z,8.00
2019-02-22T17:57:00.552Z,7.50
2019-02-22T18:02:04.329Z,8.00
2019-02-22T18:07:08.123Z,8.00
2019-02-22T18:12:11.929Z,6.80
2019-02-22T18:17:15.720Z,7.00
2019-02-22T18:22:25.780Z,7.25
2019-02-22T18:27:25.027Z,7.75
2019-02-22T18:32:28.797Z,5.20
2019-02-22T18:37:32.663Z,7.00
2019-02-22T18:42:36.772Z,8.00
2019-02-22T18:47:40.572Z,6.25
2019-02-22T18:52:44.384Z,7.00
2019-02-22T18:57:48.163Z,6.25
2019-02-22T19:02:51.941Z,6.60
2019-02-22T19:07:55.715Z,7.50
2019-02-22T19:12:59.511Z,5.00
2019-02-22T19:18:03.326Z,5.80
2019-02-22T19:23:07.211Z,5.80
2019-02-22T19:28:10.985Z,7.00
2019-02-22T19:33:14.858Z,5.00
2019-02-22T19:38:18.664Z,7.00
2019-02-22T19:43:22.477Z,7.00
2019-02-22T19:48:26.287Z,5.80
2019-02-22T19:53:30.127Z,7.00
2019-02-22T19:58:33.988Z,6.00
2019-02-22T20:03:37.907Z,6.60
2019-02-22T20:08:41.713Z,5.00
2019-02-22T20:13:45.567Z,5.25
2019-02-22T20:18:49.432Z,6.00
2019-02-22T20:23:53.236Z,7.00
2019-02-22T20:28:57.050Z,7.00
2019-02-22T20:34:00.857Z,7.00
2019-02-22T20:39:05.614Z,7.00
2019-02-22T20:44:09.429Z,7.00
2019-02-22T20:49:13.258Z,5.00
2019-02-22T20:54:17.583Z,7.00
2019-02-22T20:59:21.372Z,7.20
2019-02-22T21:04:25.170Z,7.60
2019-02-22T21:09:28.992Z,6.50
2019-02-22T21:14:32.950Z,6.40
2019-02-22T21:19:36.814Z,6.75
2019-02-22T21:24:40.651Z,7.00
2019-02-22T21:29:46.439Z,7.00
2019-02-22T21:34:50.000Z,7.00
2019-02-22T21:39:53.931Z,7.00
2019-02-22T21:44:57.740Z,7.75
2019-02-22T21:50:01.578Z,7.00
2019-02-22T21:55:06.113Z,7.00
2019-02-22T22:00:13.295Z,7.00
2019-02-22T22:05:17.191Z,6.20
2019-02-22T22:10:20.984Z,8.00
2019-02-22T22:15:24.865Z,7.00
2019-02-22T22:20:29.940Z,7.40
2019-02-22T22:25:33.798Z,7.00
2019-02-22T22:30:37.694Z,7.00
2019-02-22T22:35:41.538Z,8.00
2019-02-22T22:40:45.389Z,7.00
2019-02-22T22:45:49.268Z,7.50
2019-02-22T22:50:53.160Z,7.20
2019-02-22T22:55:57.029Z,7.00
2019-02-22T23:01:12.438Z,7.00
2019-02-22T23:06:17.496Z,7.00
2019-02-22T23:11:21.323Z,6.00
2019-02-22T23:16:25.200Z,7.60
2019-02-22T23:21:30.271Z,8.00
2019-02-22T23:26:34.303Z,4.75
2019-02-22T23:31:38.193Z,6.00
2019-02-22T23:36:42.089Z,7.00
2019-02-22T23:41:45.922Z,5.80
2019-02-22T23:46:49.760Z,7.00
2019-02-22T23:51:53.801Z,7.25
2019-02-22T23:56:57.727Z,6.00
